sensor_id;sensor_type;location;lat;lon;timestamp;P1;durP1;ratioP1;P2;durP2;ratioP2
56181;SDS011;51963;46.052;14.544;2022-11-12T00:00:22;31.63;;;14.25;;
56181;SDS011;51963;46.052;14.544;2022-11-12T00:03:07;29.48;;;13.95;;
56181;SDS011;51963;46.052;14.544;2022-11-12T00:05:52;37.42;;;16.08;;
56181;SDS011;51963;46.052;14.544;2022-11-12T00:08:36;31.70;;;14.25;;
56181;SDS011;51963;46.052;14.544;2022-11-12T00:11:20;28.95;;;13.50;;
56181;SDS011;51963;46.052;14.544;2022-11-12T00:14:04;30.30;;;14.70;;
56181;SDS011;51963;46.052;14.544;2022-11-12T00:16:49;31.25;;;15.05;;
56181;SDS011;51963;46.052;14.544;2022-11-12T00:19:33;25.60;;;13.18;;
56181;SDS011;51963;46.052;14.544;2022-11-12T00:22:17;26.02;;;13.27;;
56181;SDS011;51963;46.052;14.544;2022-11-12T00:25:02;29.80;;;14.45;;
56181;SDS011;51963;46.052;14.544;2022-11-12T00:27:46;35.22;;;13.95;;
56181;SDS011;51963;46.052;14.544;2022-11-12T00:30:30;37.97;;;15.20;;
56181;SDS011;51963;46.052;14.544;2022-11-12T00:33:15;31.17;;;14.80;;
56181;SDS011;51963;46.052;14.544;2022-11-12T00:35:59;36.60;;;14.73;;
56181;SDS011;51963;46.052;14.544;2022-11-12T00:38:43;32.58;;;15.43;;
56181;SDS011;51963;46.052;14.544;2022-11-12T00:41:28;32.45;;;14.30;;
56181;SDS011;51963;46.052;14.544;2022-11-12T00:44:12;49.40;;;16.75;;
56181;SDS011;51963;46.052;14.544;2022-11-12T00:46:57;35.08;;;15.85;;
56181;SDS011;51963;46.052;14.544;2022-11-12T00:49:41;40.30;;;16.25;;
56181;SDS011;51963;46.052;14.544;2022-11-12T00:52:25;31.33;;;16.10;;
56181;SDS011;51963;46.052;14.544;2022-11-12T00:55:10;37.85;;;15.25;;
56181;SDS011;51963;46.052;14.544;2022-11-12T00:57:56;37.47;;;15.25;;
56181;SDS011;51963;46.052;14.544;2022-11-12T01:00:43;47.95;;;18.65;;
56181;SDS011;51963;46.052;14.544;2022-11-12T01:03:28;32.33;;;15.10;;
56181;SDS011;51963;46.052;14.544;2022-11-12T01:06:13;32.25;;;15.20;;
56181;SDS011;51963;46.052;14.544;2022-11-12T01:08:59;42.70;;;15.97;;
56181;SDS011;51963;46.052;14.544;2022-11-12T01:11:44;34.20;;;15.77;;
56181;SDS011;51963;46.052;14.544;2022-11-12T01:14:28;42.00;;;15.70;;
56181;SDS011;51963;46.052;14.544;2022-11-12T01:17:12;36.47;;;14.77;;
56181;SDS011;51963;46.052;14.544;2022-11-12T01:19:57;37.10;;;16.05;;
56181;SDS011;51963;46.052;14.544;2022-11-12T01:22:42;33.80;;;14.13;;
56181;SDS011;51963;46.052;14.544;2022-11-12T01:25:26;35.30;;;15.63;;
56181;SDS011;51963;46.052;14.544;2022-11-12T01:28:10;35.85;;;15.50;;
56181;SDS011;51963;46.052;14.544;2022-11-12T01:30:54;33.72;;;15.23;;
56181;SDS011;51963;46.052;14.544;2022-11-12T01:33:39;40.30;;;16.98;;
56181;SDS011;51963;46.052;14.544;2022-11-12T01:36:24;57.83;;;17.90;;
56181;SDS011;51963;46.052;14.544;2022-11-12T01:39:09;52.70;;;18.27;;
56181;SDS011;51963;46.052;14.544;2022-11-12T01:41:53;45.17;;;16.88;;
56181;SDS011;51963;46.052;14.544;2022-11-12T01:44:38;43.70;;;17.48;;
56181;SDS011;51963;46.052;14.544;2022-11-12T01:47:31;35.90;;;16.58;;
56181;SDS011;51963;46.052;14.544;2022-11-12T01:50:29;37.58;;;16.65;;
56181;SDS011;51963;46.052;14.544;2022-11-12T01:53:17;49.03;;;20.83;;
56181;SDS011;51963;46.052;14.544;2022-11-12T01:56:04;37.53;;;17.05;;
56181;SDS011;51963;46.052;14.544;2022-11-12T01:58:51;35.70;;;16.55;;
56181;SDS011;51963;46.052;14.544;2022-11-12T02:01:42;35.67;;;16.73;;
56181;SDS011;51963;46.052;14.544;2022-11-12T02:04:26;35.88;;;15.65;;
56181;SDS011;51963;46.052;14.544;2022-11-12T02:07:11;38.42;;;16.80;;
56181;SDS011;51963;46.052;14.544;2022-11-12T02:09:55;37.55;;;16.70;;
56181;SDS011;51963;46.052;14.544;2022-11-12T02:12:42;32.85;;;15.57;;
56181;SDS011;51963;46.052;14.544;2022-11-12T02:15:46;36.08;;;14.93;;
56181;SDS011;51963;46.052;14.544;2022-11-12T02:18:31;35.25;;;14.27;;
56181;SDS011;51963;46.052;14.544;2022-11-12T02:21:19;32.97;;;13.88;;
56181;SDS011;51963;46.052;14.544;2022-11-12T02:24:47;33.38;;;14.68;;
56181;SDS011;51963;46.052;14.544;2022-11-12T02:27:14;35.67;;;15.07;;
56181;SDS011;51963;46.052;14.544;2022-11-12T02:29:59;32.67;;;13.90;;
56181;SDS011;51963;46.052;14.544;2022-11-12T02:32:43;32.83;;;14.57;;
56181;SDS011;51963;46.052;14.544;2022-11-12T02:35:28;33.70;;;13.90;;
56181;SDS011;51963;46.052;14.544;2022-11-12T02:38:12;38.50;;;15.52;;
56181;SDS011;51963;46.052;14.544;2022-11-12T02:40:57;36.50;;;15.13;;
56181;SDS011;51963;46.052;14.544;2022-11-12T02:43:41;33.22;;;14.95;;
56181;SDS011;51963;46.052;14.544;2022-11-12T02:58:55;40.15;;;16.40;;
56181;SDS011;51963;46.052;14.544;2022-11-12T03:01:39;44.63;;;17.40;;
56181;SDS011;51963;46.052;14.544;2022-11-12T03:04:23;39.40;;;16.98;;
56181;SDS011;51963;46.052;14.544;2022-11-12T03:07:07;35.65;;;15.93;;
56181;SDS011;51963;46.052;14.544;2022-11-12T03:09:52;33.70;;;13.98;;
56181;SDS011;51963;46.052;14.544;2022-11-12T03:12:36;29.17;;;13.32;;
56181;SDS011;51963;46.052;14.544;2022-11-12T03:15:20;29.60;;;13.38;;
56181;SDS011;51963;46.052;14.544;2022-11-12T03:18:04;32.15;;;14.38;;
56181;SDS011;51963;46.052;14.544;2022-11-12T03:20:50;32.33;;;14.52;;
56181;SDS011;51963;46.052;14.544;2022-11-12T03:23:34;32.17;;;13.55;;
56181;SDS011;51963;46.052;14.544;2022-11-12T03:26:19;39.53;;;17.67;;
56181;SDS011;51963;46.052;14.544;2022-11-12T03:29:03;24.95;;;10.05;;
56181;SDS011;51963;46.052;14.544;2022-11-12T03:31:47;20.60;;;8.73;;
56181;SDS011;51963;46.052;14.544;2022-11-12T03:34:31;21.50;;;8.45;;
56181;SDS011;51963;46.052;14.544;2022-11-12T03:37:15;25.92;;;8.50;;
56181;SDS011;51963;46.052;14.544;2022-11-12T03:40:00;21.95;;;9.35;;
56181;SDS011;51963;46.052;14.544;2022-11-12T03:42:44;24.02;;;9.07;;
56181;SDS011;51963;46.052;14.544;2022-11-12T03:45:32;22.70;;;8.75;;
56181;SDS011;51963;46.052;14.544;2022-11-12T03:48:17;30.92;;;13.68;;
56181;SDS011;51963;46.052;14.544;2022-11-12T03:51:01;20.83;;;9.38;;
56181;SDS011;51963;46.052;14.544;2022-11-12T03:53:46;19.50;;;8.85;;
56181;SDS011;51963;46.052;14.544;2022-11-12T03:56:30;19.83;;;9.02;;
56181;SDS011;51963;46.052;14.544;2022-11-12T03:59:14;19.33;;;8.55;;
56181;SDS011;51963;46.052;14.544;2022-11-12T04:01:58;21.08;;;8.23;;
56181;SDS011;51963;46.052;14.544;2022-11-12T04:04:43;19.08;;;8.32;;
56181;SDS011;51963;46.052;14.544;2022-11-12T04:07:55;19.13;;;8.55;;
56181;SDS011;51963;46.052;14.544;2022-11-12T04:11:07;20.80;;;8.63;;
56181;SDS011;51963;46.052;14.544;2022-11-12T04:13:53;19.73;;;8.70;;
56181;SDS011;51963;46.052;14.544;2022-11-12T04:16:37;24.05;;;9.27;;
56181;SDS011;51963;46.052;14.544;2022-11-12T04:19:40;17.90;;;8.30;;
56181;SDS011;51963;46.052;14.544;2022-11-12T04:22:43;21.67;;;9.00;;
56181;SDS011;51963;46.052;14.544;2022-11-12T04:25:27;23.60;;;9.27;;
56181;SDS011;51963;46.052;14.544;2022-11-12T04:28:30;24.10;;;10.10;;
56181;SDS011;51963;46.052;14.544;2022-11-12T04:31:15;25.77;;;9.38;;
56181;SDS011;51963;46.052;14.544;2022-11-12T04:33:59;23.40;;;10.38;;
56181;SDS011;51963;46.052;14.544;2022-11-12T04:37:03;24.50;;;9.80;;
56181;SDS011;51963;46.052;14.544;2022-11-12T04:39:48;25.98;;;11.35;;
56181;SDS011;51963;46.052;14.544;2022-11-12T04:42:33;22.33;;;10.82;;
56181;SDS011;51963;46.052;14.544;2022-11-12T04:45:37;22.67;;;10.00;;
56181;SDS011;51963;46.052;14.544;2022-11-12T04:48:22;22.50;;;11.57;;
56181;SDS011;51963;46.052;14.544;2022-11-12T04:51:08;25.17;;;10.57;;
56181;SDS011;51963;46.052;14.544;2022-11-12T04:54:11;24.48;;;10.93;;
56181;SDS011;51963;46.052;14.544;2022-11-12T04:56:55;30.13;;;10.23;;
56181;SDS011;51963;46.052;14.544;2022-11-12T04:59:39;23.92;;;10.70;;
56181;SDS011;51963;46.052;14.544;2022-11-12T05:02:24;25.67;;;11.57;;
56181;SDS011;51963;46.052;14.544;2022-11-12T05:05:08;25.00;;;9.90;;
56181;SDS011;51963;46.052;14.544;2022-11-12T05:07:52;23.27;;;9.75;;
56181;SDS011;51963;46.052;14.544;2022-11-12T05:10:36;26.83;;;10.18;;
56181;SDS011;51963;46.052;14.544;2022-11-12T05:16:30;21.33;;;9.73;;
56181;SDS011;51963;46.052;14.544;2022-11-12T05:19:14;21.42;;;9.15;;
56181;SDS011;51963;46.052;14.544;2022-11-12T05:21:58;31.73;;;10.55;;
56181;SDS011;51963;46.052;14.544;2022-11-12T05:24:49;21.08;;;10.02;;
56181;SDS011;51963;46.052;14.544;2022-11-12T05:27:33;23.38;;;10.18;;
56181;SDS011;51963;46.052;14.544;2022-11-12T05:30:18;33.63;;;10.77;;
56181;SDS011;51963;46.052;14.544;2022-11-12T05:33:02;38.10;;;10.95;;
56181;SDS011;51963;46.052;14.544;2022-11-12T05:35:46;21.02;;;10.15;;
56181;SDS011;51963;46.052;14.544;2022-11-12T05:38:31;26.65;;;10.77;;
56181;SDS011;51963;46.052;14.544;2022-11-12T05:41:15;25.05;;;10.73;;
56181;SDS011;51963;46.052;14.544;2022-11-12T05:44:00;27.23;;;10.75;;
56181;SDS011;51963;46.052;14.544;2022-11-12T05:46:47;26.58;;;10.00;;
56181;SDS011;51963;46.052;14.544;2022-11-12T05:50:00;21.75;;;10.77;;
56181;SDS011;51963;46.052;14.544;2022-11-12T05:52:45;28.00;;;9.93;;
56181;SDS011;51963;46.052;14.544;2022-11-12T05:55:30;21.77;;;10.18;;
56181;SDS011;51963;46.052;14.544;2022-11-12T05:58:14;26.33;;;9.98;;
56181;SDS011;51963;46.052;14.544;2022-11-12T06:00:58;26.52;;;10.98;;
56181;SDS011;51963;46.052;14.544;2022-11-12T06:03:42;26.00;;;10.23;;
56181;SDS011;51963;46.052;14.544;2022-11-12T06:06:27;25.50;;;10.68;;
56181;SDS011;51963;46.052;14.544;2022-11-12T06:09:11;26.70;;;10.38;;
56181;SDS011;51963;46.052;14.544;2022-11-12T06:11:55;29.48;;;10.27;;
56181;SDS011;51963;46.052;14.544;2022-11-12T06:14:40;23.90;;;10.35;;
56181;SDS011;51963;46.052;14.544;2022-11-12T06:17:24;22.73;;;9.73;;
56181;SDS011;51963;46.052;14.544;2022-11-12T06:20:09;24.98;;;10.70;;
56181;SDS011;51963;46.052;14.544;2022-11-12T06:22:55;20.63;;;9.63;;
56181;SDS011;51963;46.052;14.544;2022-11-12T06:25:40;52.15;;;10.65;;
56181;SDS011;51963;46.052;14.544;2022-11-12T06:28:27;22.67;;;9.20;;
56181;SDS011;51963;46.052;14.544;2022-11-12T06:31:45;32.83;;;10.43;;
56181;SDS011;51963;46.052;14.544;2022-11-12T06:34:29;24.40;;;9.30;;
56181;SDS011;51963;46.052;14.544;2022-11-12T06:37:13;21.90;;;9.60;;
56181;SDS011;51963;46.052;14.544;2022-11-12T06:39:59;18.92;;;9.63;;
56181;SDS011;51963;46.052;14.544;2022-11-12T06:42:43;21.58;;;9.52;;
56181;SDS011;51963;46.052;14.544;2022-11-12T06:45:28;19.08;;;9.02;;
56181;SDS011;51963;46.052;14.544;2022-11-12T06:48:12;18.00;;;9.23;;
56181;SDS011;51963;46.052;14.544;2022-11-12T06:50:57;19.25;;;9.43;;
56181;SDS011;51963;46.052;14.544;2022-11-12T06:53:41;31.67;;;10.88;;
56181;SDS011;51963;46.052;14.544;2022-11-12T06:56:25;27.17;;;10.82;;
56181;SDS011;51963;46.052;14.544;2022-11-12T06:59:10;32.55;;;11.57;;
56181;SDS011;51963;46.052;14.544;2022-11-12T07:01:54;27.33;;;11.00;;
56181;SDS011;51963;46.052;14.544;2022-11-12T07:04:41;22.38;;;10.13;;
56181;SDS011;51963;46.052;14.544;2022-11-12T07:07:25;27.75;;;11.18;;
56181;SDS011;51963;46.052;14.544;2022-11-12T07:10:09;26.02;;;11.48;;
56181;SDS011;51963;46.052;14.544;2022-11-12T07:12:54;25.98;;;11.50;;
56181;SDS011;51963;46.052;14.544;2022-11-12T07:15:38;24.90;;;11.05;;
56181;SDS011;51963;46.052;14.544;2022-11-12T07:18:22;29.33;;;11.52;;
56181;SDS011;51963;46.052;14.544;2022-11-12T07:21:07;32.22;;;12.30;;
56181;SDS011;51963;46.052;14.544;2022-11-12T07:23:53;27.83;;;12.93;;
56181;SDS011;51963;46.052;14.544;2022-11-12T07:26:37;29.35;;;14.00;;
56181;SDS011;51963;46.052;14.544;2022-11-12T07:29:22;31.75;;;14.07;;
56181;SDS011;51963;46.052;14.544;2022-11-12T07:32:06;32.45;;;12.93;;
56181;SDS011;51963;46.052;14.544;2022-11-12T07:34:50;28.75;;;12.50;;
56181;SDS011;51963;46.052;14.544;2022-11-12T07:37:34;27.80;;;12.27;;
56181;SDS011;51963;46.052;14.544;2022-11-12T07:40:19;28.52;;;13.00;;
56181;SDS011;51963;46.052;14.544;2022-11-12T07:43:03;31.27;;;13.30;;
56181;SDS011;51963;46.052;14.544;2022-11-12T07:45:47;31.35;;;14.05;;
56181;SDS011;51963;46.052;14.544;2022-11-12T07:48:32;33.63;;;13.50;;
56181;SDS011;51963;46.052;14.544;2022-11-12T07:51:27;31.90;;;13.38;;
56181;SDS011;51963;46.052;14.544;2022-11-12T07:54:12;36.60;;;14.93;;
56181;SDS011;51963;46.052;14.544;2022-11-12T07:56:56;36.90;;;14.88;;
56181;SDS011;51963;46.052;14.544;2022-11-12T07:59:41;38.13;;;15.20;;
56181;SDS011;51963;46.052;14.544;2022-11-12T08:02:25;37.30;;;15.48;;
56181;SDS011;51963;46.052;14.544;2022-11-12T08:05:09;35.08;;;13.90;;
56181;SDS011;51963;46.052;14.544;2022-11-12T08:07:54;36.92;;;13.40;;
56181;SDS011;51963;46.052;14.544;2022-11-12T08:10:39;41.40;;;15.55;;
56181;SDS011;51963;46.052;14.544;2022-11-12T08:13:24;34.08;;;15.88;;
56181;SDS011;51963;46.052;14.544;2022-11-12T08:16:09;39.17;;;15.77;;
56181;SDS011;51963;46.052;14.544;2022-11-12T08:18:53;43.72;;;16.98;;
56181;SDS011;51963;46.052;14.544;2022-11-12T08:21:37;41.85;;;16.13;;
56181;SDS011;51963;46.052;14.544;2022-11-12T08:24:21;44.35;;;17.20;;
56181;SDS011;51963;46.052;14.544;2022-11-12T08:27:05;46.30;;;18.48;;
56181;SDS011;51963;46.052;14.544;2022-11-12T08:29:49;48.03;;;18.25;;
56181;SDS011;51963;46.052;14.544;2022-11-12T08:32:34;46.53;;;19.27;;
56181;SDS011;51963;46.052;14.544;2022-11-12T08:35:19;47.75;;;18.17;;
56181;SDS011;51963;46.052;14.544;2022-11-12T08:38:04;46.72;;;19.00;;
56181;SDS011;51963;46.052;14.544;2022-11-12T08:40:53;52.22;;;19.25;;
56181;SDS011;51963;46.052;14.544;2022-11-12T08:43:48;48.00;;;19.52;;
56181;SDS011;51963;46.052;14.544;2022-11-12T08:46:32;46.15;;;19.63;;
56181;SDS011;51963;46.052;14.544;2022-11-12T08:49:16;44.50;;;18.63;;
56181;SDS011;51963;46.052;14.544;2022-11-12T08:52:00;47.55;;;19.73;;
56181;SDS011;51963;46.052;14.544;2022-11-12T08:54:44;51.53;;;20.77;;
56181;SDS011;51963;46.052;14.544;2022-11-12T08:57:28;51.85;;;20.17;;
56181;SDS011;51963;46.052;14.544;2022-11-12T09:00:13;54.20;;;20.27;;
56181;SDS011;51963;46.052;14.544;2022-11-12T09:03:01;54.65;;;20.80;;
56181;SDS011;51963;46.052;14.544;2022-11-12T09:05:48;52.33;;;20.92;;
56181;SDS011;51963;46.052;14.544;2022-11-12T09:08:34;60.03;;;22.55;;
56181;SDS011;51963;46.052;14.544;2022-11-12T09:11:19;55.15;;;20.77;;
56181;SDS011;51963;46.052;14.544;2022-11-12T09:14:03;57.45;;;22.25;;
56181;SDS011;51963;46.052;14.544;2022-11-12T09:16:47;57.85;;;21.58;;
56181;SDS011;51963;46.052;14.544;2022-11-12T09:19:31;54.22;;;22.58;;
56181;SDS011;51963;46.052;14.544;2022-11-12T09:22:15;51.20;;;20.45;;
56181;SDS011;51963;46.052;14.544;2022-11-12T09:24:59;50.03;;;20.65;;
56181;SDS011;51963;46.052;14.544;2022-11-12T09:27:43;49.58;;;19.73;;
56181;SDS011;51963;46.052;14.544;2022-11-12T09:30:27;53.67;;;20.77;;
56181;SDS011;51963;46.052;14.544;2022-11-12T09:33:14;53.38;;;21.65;;
56181;SDS011;51963;46.052;14.544;2022-11-12T09:36:01;55.05;;;20.73;;
56181;SDS011;51963;46.052;14.544;2022-11-12T09:38:46;50.72;;;20.90;;
56181;SDS011;51963;46.052;14.544;2022-11-12T09:41:38;45.88;;;19.80;;
56181;SDS011;51963;46.052;14.544;2022-11-12T09:44:23;47.35;;;19.25;;
56181;SDS011;51963;46.052;14.544;2022-11-12T09:47:25;54.72;;;20.33;;
56181;SDS011;51963;46.052;14.544;2022-11-12T09:50:29;49.60;;;20.15;;
56181;SDS011;51963;46.052;14.544;2022-11-12T09:56:20;55.17;;;22.27;;
56181;SDS011;51963;46.052;14.544;2022-11-12T09:59:11;53.88;;;22.88;;
56181;SDS011;51963;46.052;14.544;2022-11-12T10:04:55;55.30;;;22.77;;
56181;SDS011;51963;46.052;14.544;2022-11-12T10:14:12;55.35;;;22.95;;
56181;SDS011;51963;46.052;14.544;2022-11-12T10:23:54;59.22;;;24.25;;
56181;SDS011;51963;46.052;14.544;2022-11-12T10:29:38;66.90;;;25.25;;
56181;SDS011;51963;46.052;14.544;2022-11-12T10:32:24;61.25;;;25.02;;
56181;SDS011;51963;46.052;14.544;2022-11-12T10:35:09;61.50;;;25.45;;
56181;SDS011;51963;46.052;14.544;2022-11-12T10:37:57;57.70;;;25.38;;
56181;SDS011;51963;46.052;14.544;2022-11-12T10:40:45;59.92;;;25.92;;
56181;SDS011;51963;46.052;14.544;2022-11-12T10:43:29;59.53;;;23.88;;
56181;SDS011;51963;46.052;14.544;2022-11-12T10:46:23;56.70;;;24.48;;
56181;SDS011;51963;46.052;14.544;2022-11-12T10:49:21;63.35;;;27.60;;
56181;SDS011;51963;46.052;14.544;2022-11-12T10:52:20;71.55;;;29.35;;
56181;SDS011;51963;46.052;14.544;2022-11-12T10:55:22;64.18;;;27.55;;
56181;SDS011;51963;46.052;14.544;2022-11-12T11:04:18;66.47;;;29.45;;
56181;SDS011;51963;46.052;14.544;2022-11-12T11:07:21;58.40;;;26.67;;
56181;SDS011;51963;46.052;14.544;2022-11-12T11:10:24;57.67;;;27.38;;
56181;SDS011;51963;46.052;14.544;2022-11-12T11:13:18;49.53;;;23.92;;
56181;SDS011;51963;46.052;14.544;2022-11-12T11:16:09;51.05;;;23.75;;
56181;SDS011;51963;46.052;14.544;2022-11-12T11:18:57;49.97;;;22.77;;
56181;SDS011;51963;46.052;14.544;2022-11-12T11:28:06;38.45;;;19.80;;
56181;SDS011;51963;46.052;14.544;2022-11-12T11:31:33;39.72;;;20.83;;
56181;SDS011;51963;46.052;14.544;2022-11-12T11:46:57;33.80;;;17.55;;
56181;SDS011;51963;46.052;14.544;2022-11-12T11:50:16;34.15;;;17.63;;
56181;SDS011;51963;46.052;14.544;2022-11-12T11:53:09;38.25;;;17.95;;
56181;SDS011;51963;46.052;14.544;2022-11-12T11:56:13;30.52;;;17.73;;
56181;SDS011;51963;46.052;14.544;2022-11-12T12:08:24;24.75;;;15.95;;
56181;SDS011;51963;46.052;14.544;2022-11-12T12:11:41;24.45;;;15.90;;
56181;SDS011;51963;46.052;14.544;2022-11-12T12:26:34;24.55;;;15.75;;
56181;SDS011;51963;46.052;14.544;2022-11-12T12:32:13;20.70;;;14.82;;
56181;SDS011;51963;46.052;14.544;2022-11-12T12:42:00;19.10;;;13.75;;
56181;SDS011;51963;46.052;14.544;2022-11-12T12:44:53;20.05;;;13.25;;
56181;SDS011;51963;46.052;14.544;2022-11-12T12:47:44;17.63;;;13.18;;
56181;SDS011;51963;46.052;14.544;2022-11-12T12:50:30;18.58;;;13.32;;
56181;SDS011;51963;46.052;14.544;2022-11-12T12:58:55;16.42;;;12.77;;
56181;SDS011;51963;46.052;14.544;2022-11-12T13:01:51;20.67;;;12.48;;
56181;SDS011;51963;46.052;14.544;2022-11-12T13:04:49;16.95;;;11.65;;
56181;SDS011;51963;46.052;14.544;2022-11-12T13:07:45;17.42;;;11.98;;
56181;SDS011;51963;46.052;14.544;2022-11-12T13:16:03;19.20;;;12.70;;
56181;SDS011;51963;46.052;14.544;2022-11-12T13:21:35;18.90;;;13.45;;
56181;SDS011;51963;46.052;14.544;2022-11-12T13:33:19;19.70;;;13.10;;
56181;SDS011;51963;46.052;14.544;2022-11-12T13:36:25;17.65;;;11.85;;
56181;SDS011;51963;46.052;14.544;2022-11-12T13:39:15;21.45;;;10.93;;
56181;SDS011;51963;46.052;14.544;2022-11-12T13:42:12;18.98;;;11.05;;
56181;SDS011;51963;46.052;14.544;2022-11-12T13:45:20;19.45;;;11.55;;
56181;SDS011;51963;46.052;14.544;2022-11-12T13:49:08;22.98;;;13.20;;
56181;SDS011;51963;46.052;14.544;2022-11-12T14:00:08;16.23;;;11.60;;
56181;SDS011;51963;46.052;14.544;2022-11-12T14:03:05;21.00;;;12.68;;
56181;SDS011;51963;46.052;14.544;2022-11-12T14:05:51;20.42;;;12.45;;
56181;SDS011;51963;46.052;14.544;2022-11-12T14:21:04;20.60;;;11.43;;
56181;SDS011;51963;46.052;14.544;2022-11-12T14:23:49;19.30;;;11.93;;
56181;SDS011;51963;46.052;14.544;2022-11-12T14:26:37;19.38;;;12.45;;
56181;SDS011;51963;46.052;14.544;2022-11-12T14:29:24;20.92;;;13.20;;
56181;SDS011;51963;46.052;14.544;2022-11-12T14:32:08;22.88;;;12.45;;
56181;SDS011;51963;46.052;14.544;2022-11-12T14:34:53;17.90;;;11.38;;
56181;SDS011;51963;46.052;14.544;2022-11-12T14:37:37;17.38;;;10.48;;
56181;SDS011;51963;46.052;14.544;2022-11-12T14:40:23;15.32;;;10.10;;
56181;SDS011;51963;46.052;14.544;2022-11-12T14:52:18;15.32;;;9.50;;
56181;SDS011;51963;46.052;14.544;2022-11-12T14:55:08;16.33;;;10.52;;
56181;SDS011;51963;46.052;14.544;2022-11-12T14:57:56;16.55;;;10.70;;
56181;SDS011;51963;46.052;14.544;2022-11-12T15:00:43;18.23;;;11.63;;
56181;SDS011;51963;46.052;14.544;2022-11-12T15:06:20;18.02;;;10.20;;
56181;SDS011;51963;46.052;14.544;2022-11-12T15:09:14;18.02;;;11.10;;
56181;SDS011;51963;46.052;14.544;2022-11-12T15:12:08;17.25;;;11.13;;
56181;SDS011;51963;46.052;14.544;2022-11-12T15:15:07;19.05;;;11.95;;
56181;SDS011;51963;46.052;14.544;2022-11-12T15:18:00;19.25;;;12.52;;
56181;SDS011;51963;46.052;14.544;2022-11-12T15:24:04;25.25;;;14.63;;
56181;SDS011;51963;46.052;14.544;2022-11-12T15:26:55;32.22;;;17.30;;
56181;SDS011;51963;46.052;14.544;2022-11-12T15:29:42;25.37;;;14.57;;
56181;SDS011;51963;46.052;14.544;2022-11-12T15:32:29;26.67;;;15.30;;
56181;SDS011;51963;46.052;14.544;2022-11-12T15:35:19;29.83;;;15.65;;
56181;SDS011;51963;46.052;14.544;2022-11-12T15:38:33;25.08;;;14.85;;
56181;SDS011;51963;46.052;14.544;2022-11-12T15:41:21;22.95;;;14.00;;
56181;SDS011;51963;46.052;14.544;2022-11-12T15:44:08;28.33;;;14.63;;
56181;SDS011;51963;46.052;14.544;2022-11-12T15:46:53;24.15;;;13.50;;
56181;SDS011;51963;46.052;14.544;2022-11-12T15:49:54;22.55;;;14.10;;
56181;SDS011;51963;46.052;14.544;2022-11-12T15:52:42;23.33;;;13.75;;
56181;SDS011;51963;46.052;14.544;2022-11-12T15:55:27;28.13;;;14.70;;
56181;SDS011;51963;46.052;14.544;2022-11-12T15:58:16;24.20;;;13.90;;
56181;SDS011;51963;46.052;14.544;2022-11-12T16:01:03;28.25;;;14.02;;
56181;SDS011;51963;46.052;14.544;2022-11-12T16:03:50;23.73;;;13.88;;
56181;SDS011;51963;46.052;14.544;2022-11-12T16:06:35;25.42;;;13.93;;
56181;SDS011;51963;46.052;14.544;2022-11-12T16:09:19;41.45;;;24.05;;
56181;SDS011;51963;46.052;14.544;2022-11-12T16:12:03;24.13;;;15.50;;
56181;SDS011;51963;46.052;14.544;2022-11-12T16:14:47;25.67;;;14.48;;
56181;SDS011;51963;46.052;14.544;2022-11-12T16:17:31;22.65;;;13.52;;
56181;SDS011;51963;46.052;14.544;2022-11-12T16:20:17;23.98;;;14.30;;
56181;SDS011;51963;46.052;14.544;2022-11-12T16:23:09;24.35;;;14.15;;
56181;SDS011;51963;46.052;14.544;2022-11-12T16:25:53;25.45;;;14.52;;
56181;SDS011;51963;46.052;14.544;2022-11-12T16:28:37;25.05;;;13.80;;
56181;SDS011;51963;46.052;14.544;2022-11-12T16:31:22;21.92;;;13.25;;
56181;SDS011;51963;46.052;14.544;2022-11-12T16:34:07;25.25;;;14.73;;
56181;SDS011;51963;46.052;14.544;2022-11-12T16:36:57;25.73;;;14.75;;
56181;SDS011;51963;46.052;14.544;2022-11-12T16:39:42;23.67;;;14.57;;
56181;SDS011;51963;46.052;14.544;2022-11-12T16:42:26;23.75;;;15.15;;
56181;SDS011;51963;46.052;14.544;2022-11-12T16:45:11;22.45;;;14.90;;
56181;SDS011;51963;46.052;14.544;2022-11-12T16:47:56;24.98;;;14.95;;
56181;SDS011;51963;46.052;14.544;2022-11-12T16:50:40;26.95;;;17.10;;
56181;SDS011;51963;46.052;14.544;2022-11-12T16:53:25;29.00;;;16.45;;
56181;SDS011;51963;46.052;14.544;2022-11-12T16:56:13;35.92;;;20.13;;
56181;SDS011;51963;46.052;14.544;2022-11-12T16:59:00;27.63;;;17.13;;
56181;SDS011;51963;46.052;14.544;2022-11-12T17:01:45;29.75;;;16.23;;
56181;SDS011;51963;46.052;14.544;2022-11-12T17:04:29;29.65;;;17.48;;
56181;SDS011;51963;46.052;14.544;2022-11-12T17:07:13;28.23;;;16.23;;
56181;SDS011;51963;46.052;14.544;2022-11-12T17:09:57;31.20;;;17.23;;
56181;SDS011;51963;46.052;14.544;2022-11-12T17:12:42;27.52;;;16.70;;
56181;SDS011;51963;46.052;14.544;2022-11-12T17:15:26;30.25;;;17.67;;
56181;SDS011;51963;46.052;14.544;2022-11-12T17:18:10;29.40;;;17.33;;
56181;SDS011;51963;46.052;14.544;2022-11-12T17:20:54;28.38;;;16.80;;
56181;SDS011;51963;46.052;14.544;2022-11-12T17:23:39;28.15;;;16.42;;
56181;SDS011;51963;46.052;14.544;2022-11-12T17:26:23;29.30;;;16.70;;
56181;SDS011;51963;46.052;14.544;2022-11-12T17:29:09;25.42;;;15.05;;
56181;SDS011;51963;46.052;14.544;2022-11-12T17:31:53;23.45;;;14.48;;
56181;SDS011;51963;46.052;14.544;2022-11-12T17:34:37;23.23;;;13.73;;
56181;SDS011;51963;46.052;14.544;2022-11-12T17:37:21;22.52;;;14.13;;
56181;SDS011;51963;46.052;14.544;2022-11-12T17:40:05;21.77;;;13.45;;
56181;SDS011;51963;46.052;14.544;2022-11-12T17:42:50;27.85;;;15.95;;
56181;SDS011;51963;46.052;14.544;2022-11-12T17:45:37;26.38;;;15.18;;
56181;SDS011;51963;46.052;14.544;2022-11-12T17:48:31;35.60;;;19.85;;
56181;SDS011;51963;46.052;14.544;2022-11-12T17:51:20;31.10;;;17.88;;
56181;SDS011;51963;46.052;14.544;2022-11-12T17:54:06;32.03;;;17.90;;
56181;SDS011;51963;46.052;14.544;2022-11-12T17:56:51;54.80;;;27.25;;
56181;SDS011;51963;46.052;14.544;2022-11-12T17:59:35;48.45;;;24.33;;
56181;SDS011;51963;46.052;14.544;2022-11-12T18:02:19;48.97;;;25.20;;
56181;SDS011;51963;46.052;14.544;2022-11-12T18:05:04;51.63;;;25.70;;
56181;SDS011;51963;46.052;14.544;2022-11-12T18:07:48;48.13;;;24.45;;
56181;SDS011;51963;46.052;14.544;2022-11-12T18:10:32;39.58;;;20.92;;
56181;SDS011;51963;46.052;14.544;2022-11-12T18:13:16;35.60;;;18.83;;
56181;SDS011;51963;46.052;14.544;2022-11-12T18:16:38;36.60;;;19.73;;
56181;SDS011;51963;46.052;14.544;2022-11-12T18:19:16;41.33;;;20.98;;
56181;SDS011;51963;46.052;14.544;2022-11-12T18:22:01;35.95;;;20.77;;
56181;SDS011;51963;46.052;14.544;2022-11-12T18:24:48;37.67;;;20.30;;
56181;SDS011;51963;46.052;14.544;2022-11-12T18:27:32;36.15;;;19.20;;
56181;SDS011;51963;46.052;14.544;2022-11-12T18:30:17;38.70;;;21.17;;
56181;SDS011;51963;46.052;14.544;2022-11-12T18:33:02;35.85;;;20.23;;
56181;SDS011;51963;46.052;14.544;2022-11-12T18:35:46;36.53;;;19.67;;
56181;SDS011;51963;46.052;14.544;2022-11-12T18:38:33;39.25;;;19.95;;
56181;SDS011;51963;46.052;14.544;2022-11-12T18:41:19;38.20;;;20.45;;